Time;durP1;ratioP1;P1;durP2;ratioP2;P2;SDS_P1;SDS_P2;PMS_P1;PMS_P2;Temp;Humidity;BMP_temperature;BMP_pressure;BME280_temperature;BME280_humidity;BME280_pressure;Samples;Min_cycle;Max_cycle;Signal;HPM_P1;HPM_P2
2023/06/07 00:01:42;;;;;;;1.60;1.50;;;;;;;;;;5090344;28;20206;-60
2023/06/07 00:04:11;;;;;;;2.47;1.50;;;;;;;;;;5089475;28;20668;-61
2023/06/07 00:06:39;;;;;;;1.55;1.55;;;;;;;;;;5088644;28;20255;-61
2023/06/07 00:09:09;;;;;;;1.80;1.63;;;;;;;;;;5090196;28;20285;-61
2023/06/07 00:11:36;;;;;;;1.50;1.50;;;;;;;;;;5102011;28;20309;-61
2023/06/07 00:14:03;;;;;;;1.58;1.58;;;;;;;;;;5088460;28;20262;-61
2023/06/07 00:16:32;;;;;;;1.52;1.50;;;;;;;;;;5088475;28;20217;-61
2023/06/07 00:19:01;;;;;;;1.33;1.33;;;;;;;;;;5088288;28;20202;-61
2023/06/07 00:21:30;;;;;;;2.83;1.92;;;;;;;;;;5088982;28;20576;-61
2023/06/07 00:23:57;;;;;;;2.83;1.48;;;;;;;;;;5089026;28;20206;-61
2023/06/07 00:26:25;;;;;;;2.60;1.42;;;;;;;;;;5089381;28;20267;-61
2023/06/07 00:28:52;;;;;;;1.85;1.75;;;;;;;;;;5089000;28;20214;-61
2023/06/07 00:31:19;;;;;;;1.58;1.48;;;;;;;;;;5088628;28;20274;-61
2023/06/07 00:33:47;;;;;;;1.67;1.67;;;;;;;;;;5088163;28;20206;-61
2023/06/07 00:36:14;;;;;;;1.30;1.30;;;;;;;;;;5088802;28;20620;-61
2023/06/07 00:38:41;;;;;;;1.40;1.40;;;;;;;;;;5089581;28;20206;-61
2023/06/07 00:41:08;;;;;;;1.60;1.60;;;;;;;;;;5101222;28;20254;-61
2023/06/07 00:43:37;;;;;;;1.55;1.55;;;;;;;;;;5086678;28;20241;-61
2023/06/07 00:46:05;;;;;;;1.65;1.55;;;;;;;;;;5079045;28;20576;-61
2023/06/07 00:48:33;;;;;;;1.63;1.60;;;;;;;;;;5089518;28;20245;-61
2023/06/07 00:51:00;;;;;;;1.80;1.70;;;;;;;;;;5087035;28;20430;-61
2023/06/07 00:53:27;;;;;;;1.90;1.63;;;;;;;;;;5087814;28;20206;-61
2023/06/07 00:55:54;;;;;;;1.95;1.85;;;;;;;;;;5087222;28;20213;-61
2023/06/07 00:58:21;;;;;;;1.80;1.70;;;;;;;;;;5087510;28;20218;-61
2023/06/07 01:00:50;;;;;;;3.30;1.60;;;;;;;;;;5086868;28;20210;-61
2023/06/07 01:03:18;;;;;;;1.65;1.65;;;;;;;;;;5086901;28;20531;-61
2023/06/07 01:05:45;;;;;;;1.75;1.75;;;;;;;;;;5085920;28;20217;-61
2023/06/07 01:08:13;;;;;;;2.85;1.85;;;;;;;;;;5087305;28;20621;-61
2023/06/07 01:10:40;;;;;;;1.70;1.63;;;;;;;;;;5089141;28;20222;-61
2023/06/07 01:13:09;;;;;;;1.95;1.65;;;;;;;;;;5088800;28;20210;-62
2023/06/07 01:15:36;;;;;;;1.95;1.58;;;;;;;;;;5087946;28;20210;-61
2023/06/07 01:18:04;;;;;;;1.60;1.60;;;;;;;;;;5079669;28;20236;-61
2023/06/07 01:20:33;;;;;;;1.90;1.80;;;;;;;;;;5088865;28;20331;-62
2023/06/07 01:23:03;;;;;;;2.05;1.95;;;;;;;;;;5088781;28;20624;-61
2023/06/07 01:25:31;;;;;;;6.18;1.88;;;;;;;;;;5087864;28;20786;-61
2023/06/07 01:27:59;;;;;;;1.67;1.67;;;;;;;;;;5088252;28;20230;-61
2023/06/07 01:30:31;;;;;;;1.52;1.52;;;;;;;;;;5087808;28;20226;-61
2023/06/07 01:32:58;;;;;;;1.70;1.63;;;;;;;;;;5088510;28;20578;-61
2023/06/07 01:35:26;;;;;;;2.63;1.90;;;;;;;;;;5087970;28;20684;-61
2023/06/07 01:37:53;;;;;;;1.83;1.73;;;;;;;;;;5087455;28;20563;-61
2023/06/07 01:40:22;;;;;;;1.52;1.52;;;;;;;;;;5087721;28;20561;-61
2023/06/07 01:42:50;;;;;;;1.95;1.85;;;;;;;;;;5087697;28;20246;-61
2023/06/07 01:45:18;;;;;;;1.80;1.80;;;;;;;;;;5087562;28;20207;-61
2023/06/07 01:47:45;;;;;;;2.22;2.05;;;;;;;;;;5088517;28;20650;-61
2023/06/07 01:50:12;;;;;;;4.32;1.80;;;;;;;;;;5088756;28;20684;-61
2023/06/07 01:52:39;;;;;;;2.13;2.03;;;;;;;;;;5073287;28;20286;-61
2023/06/07 01:55:06;;;;;;;1.80;1.80;;;;;;;;;;5075483;28;20210;-61
2023/06/07 01:57:41;;;;;;;2.00;1.92;;;;;;;;;;5087749;28;20255;-61
2023/06/07 02:00:15;;;;;;;3.20;1.75;;;;;;;;;;5088338;28;20214;-61
2023/06/07 02:02:46;;;;;;;1.50;1.50;;;;;;;;;;5088001;28;20688;-61
2023/06/07 02:05:15;;;;;;;1.80;1.80;;;;;;;;;;5087270;28;20218;-61
2023/06/07 02:07:45;;;;;;;1.73;1.70;;;;;;;;;;5087867;28;20731;-61
2023/06/07 02:10:13;;;;;;;1.58;1.58;;;;;;;;;;5087967;28;20516;-61
2023/06/07 02:12:41;;;;;;;2.13;2.03;;;;;;;;;;5084685;28;20749;-61
2023/06/07 02:15:08;;;;;;;1.92;1.83;;;;;;;;;;5079238;28;20675;-61
2023/06/07 02:17:48;;;;;;;1.83;1.77;;;;;;;;;;5087418;28;20206;-61
2023/06/07 02:20:15;;;;;;;2.03;1.92;;;;;;;;;;5087695;28;20237;-61
2023/06/07 02:22:42;;;;;;;2.85;1.90;;;;;;;;;;5088020;28;20210;-61
2023/06/07 02:25:10;;;;;;;2.08;1.98;;;;;;;;;;5086750;28;20221;-61
2023/06/07 02:27:37;;;;;;;1.90;1.80;;;;;;;;;;5087305;28;20226;-61
2023/06/07 02:30:04;;;;;;;2.38;2.03;;;;;;;;;;5087388;28;20704;-61
2023/06/07 02:32:33;;;;;;;1.60;1.60;;;;;;;;;;5087515;28;20217;-61
2023/06/07 02:35:01;;;;;;;1.98;1.88;;;;;;;;;;5086176;28;20734;-61
2023/06/07 02:37:29;;;;;;;2.13;2.03;;;;;;;;;;5087240;28;20221;-61
2023/06/07 02:39:56;;;;;;;2.92;2.17;;;;;;;;;;5087284;28;20309;-61
2023/06/07 02:42:23;;;;;;;1.98;1.88;;;;;;;;;;5086080;28;20268;-61
2023/06/07 02:44:50;;;;;;;2.13;2.03;;;;;;;;;;5085549;28;20214;-61
2023/06/07 02:47:17;;;;;;;1.90;1.80;;;;;;;;;;5067404;28;20230;-61
2023/06/07 02:49:44;;;;;;;2.15;2.03;;;;;;;;;;5066742;28;20215;-61
2023/06/07 02:52:13;;;;;;;1.55;1.50;;;;;;;;;;5066725;28;20581;-61
2023/06/07 02:54:40;;;;;;;2.15;1.80;;;;;;;;;;5074874;28;20242;-61
2023/06/07 02:57:08;;;;;;;2.92;2.00;;;;;;;;;;5086525;28;20213;-61
2023/06/07 02:59:35;;;;;;;2.70;2.00;;;;;;;;;;5085897;28;20297;-61
2023/06/07 03:02:02;;;;;;;2.35;2.25;;;;;;;;;;5086637;28;20214;-61
2023/06/07 03:04:30;;;;;;;1.95;1.85;;;;;;;;;;5085655;28;20213;-60
2023/06/07 03:06:58;;;;;;;4.38;1.70;;;;;;;;;;5086667;28;20635;-61
2023/06/07 03:09:27;;;;;;;1.85;1.75;;;;;;;;;;5086050;28;20249;-61
2023/06/07 03:11:54;;;;;;;2.10;2.03;;;;;;;;;;5068382;28;20576;-61
2023/06/07 03:14:21;;;;;;;2.13;2.03;;;;;;;;;;5072080;28;20218;-61
2023/06/07 03:16:48;;;;;;;2.00;1.90;;;;;;;;;;5085497;28;20203;-61
2023/06/07 03:19:15;;;;;;;1.70;1.70;;;;;;;;;;5086478;28;20216;-61
2023/06/07 03:21:44;;;;;;;1.98;1.83;;;;;;;;;;5086409;28;20348;-60
2023/06/07 03:24:11;;;;;;;2.22;2.13;;;;;;;;;;5085018;28;20275;-60
2023/06/07 03:26:39;;;;;;;2.13;2.03;;;;;;;;;;5085368;28;20698;-61
2023/06/07 03:29:06;;;;;;;2.03;1.92;;;;;;;;;;5086049;28;20267;-60
2023/06/07 03:31:34;;;;;;;2.22;2.00;;;;;;;;;;5086234;28;20214;-61
2023/06/07 03:34:01;;;;;;;3.72;2.10;;;;;;;;;;5086088;28;20236;-60
2023/06/07 03:36:28;;;;;;;2.40;2.28;;;;;;;;;;5084054;28;20229;-61
2023/06/07 03:38:56;;;;;;;1.95;1.85;;;;;;;;;;5084360;28;20325;-61
2023/06/07 03:41:23;;;;;;;3.40;2.28;;;;;;;;;;5086077;28;20218;-61
2023/06/07 03:43:51;;;;;;;2.35;1.85;;;;;;;;;;5085124;28;20237;-61
2023/06/07 03:46:18;;;;;;;2.67;2.47;;;;;;;;;;5086185;28;20210;-61
2023/06/07 03:48:45;;;;;;;1.70;1.70;;;;;;;;;;5085283;28;20226;-61
2023/06/07 03:51:12;;;;;;;1.80;1.80;;;;;;;;;;5085966;28;20308;-61
2023/06/07 03:53:39;;;;;;;2.10;2.00;;;;;;;;;;5085189;28;20651;-61
2023/06/07 03:56:07;;;;;;;2.30;2.20;;;;;;;;;;5085935;28;20206;-61
2023/06/07 03:58:35;;;;;;;2.38;2.25;;;;;;;;;;5083022;28;20215;-61
2023/06/07 04:01:04;;;;;;;2.15;2.05;;;;;;;;;;5081226;28;20222;-61
2023/06/07 04:03:31;;;;;;;2.30;2.20;;;;;;;;;;5071063;28;20210;-61
2023/06/07 04:05:58;;;;;;;1.98;1.88;;;;;;;;;;5087344;28;20207;-61
2023/06/07 04:08:25;;;;;;;2.10;2.00;;;;;;;;;;5088447;28;20310;-60
2023/06/07 04:10:53;;;;;;;4.13;2.28;;;;;;;;;;5090378;28;20214;-60
2023/06/07 04:13:20;;;;;;;2.38;2.10;;;;;;;;;;5090290;28;20538;-60
2023/06/07 04:15:47;;;;;;;1.92;1.83;;;;;;;;;;5088589;28;20214;-61
2023/06/07 04:18:15;;;;;;;2.53;2.42;;;;;;;;;;5089649;28;20209;-61
2023/06/07 04:20:43;;;;;;;2.22;2.13;;;;;;;;;;5073837;28;20227;-61
2023/06/07 04:23:10;;;;;;;2.20;2.10;;;;;;;;;;5070511;28;20211;-62
2023/06/07 04:25:38;;;;;;;2.22;2.13;;;;;;;;;;5086138;28;20238;-61
2023/06/07 04:28:05;;;;;;;2.10;1.98;;;;;;;;;;5089082;28;20354;-61
2023/06/07 04:30:36;;;;;;;2.17;2.08;;;;;;;;;;5089838;28;20205;-61
2023/06/07 04:33:04;;;;;;;2.53;2.40;;;;;;;;;;5089744;28;20305;-61
2023/06/07 04:35:33;;;;;;;3.88;2.35;;;;;;;;;;5088969;28;20243;-61
2023/06/07 04:38:03;;;;;;;2.13;2.00;;;;;;;;;;5090465;28;20210;-61
2023/06/07 04:40:30;;;;;;;2.67;2.58;;;;;;;;;;5093050;28;20734;-61
2023/06/07 04:43:04;;;;;;;2.40;1.92;;;;;;;;;;5071910;28;20254;-61
2023/06/07 04:45:32;;;;;;;2.40;2.30;;;;;;;;;;5084393;28;20301;-61
2023/06/07 04:47:59;;;;;;;2.30;2.20;;;;;;;;;;5090088;28;20226;-61
2023/06/07 04:50:28;;;;;;;1.88;1.85;;;;;;;;;;5088955;28;20206;-61
2023/06/07 04:53:00;;;;;;;2.47;2.30;;;;;;;;;;5090057;28;20744;-60
2023/06/07 04:55:29;;;;;;;2.38;2.25;;;;;;;;;;5088463;28;20224;-61
2023/06/07 04:57:56;;;;;;;3.38;2.28;;;;;;;;;;5088528;28;20301;-61
2023/06/07 05:00:24;;;;;;;3.35;2.20;;;;;;;;;;5086542;28;20297;-61
2023/06/07 05:02:52;;;;;;;4.97;2.15;;;;;;;;;;5086470;28;20237;-61
2023/06/07 05:05:19;;;;;;;1.77;1.67;;;;;;;;;;5087548;28;20681;-61
2023/06/07 05:07:46;;;;;;;1.95;1.85;;;;;;;;;;5089000;28;20312;-61
2023/06/07 05:10:15;;;;;;;2.17;2.08;;;;;;;;;;5076023;28;20244;-62
2023/06/07 05:12:42;;;;;;;1.85;1.85;;;;;;;;;;5072912;28;20211;-60
2023/06/07 05:15:09;;;;;;;2.28;2.10;;;;;;;;;;5074317;28;20198;-61
2023/06/07 05:17:38;;;;;;;2.72;2.10;;;;;;;;;;5088566;28;20206;-61
2023/06/07 05:20:10;;;;;;;1.80;1.80;;;;;;;;;;5086243;28;20206;-61
2023/06/07 05:22:37;;;;;;;2.50;2.38;;;;;;;;;;5084627;28;20350;-61
2023/06/07 05:25:04;;;;;;;2.17;2.08;;;;;;;;;;5082674;28;20206;-62
2023/06/07 05:27:33;;;;;;;2.10;2.10;;;;;;;;;;5078374;28;20257;-61
2023/06/07 05:30:00;;;;;;;1.77;1.77;;;;;;;;;;5085136;28;20233;-61
2023/06/07 05:32:27;;;;;;;2.25;2.05;;;;;;;;;;5085684;28;20206;-62
2023/06/07 05:34:54;;;;;;;2.17;2.13;;;;;;;;;;5080869;28;20207;-62
2023/06/07 05:37:21;;;;;;;2.15;2.05;;;;;;;;;;5077426;28;20264;-62
2023/06/07 05:39:49;;;;;;;1.98;1.90;;;;;;;;;;5080872;28;20648;-62
2023/06/07 05:42:16;;;;;;;2.33;2.13;;;;;;;;;;5075891;28;20750;-63
2023/06/07 05:44:45;;;;;;;2.65;2.20;;;;;;;;;;5079182;28;20601;-64
2023/06/07 05:47:13;;;;;;;2.70;2.50;;;;;;;;;;5084585;28;20251;-64
2023/06/07 05:49:40;;;;;;;2.97;2.50;;;;;;;;;;5086608;28;20233;-63
2023/06/07 05:52:07;;;;;;;2.78;2.20;;;;;;;;;;5088296;28;20210;-64
2023/06/07 05:54:34;;;;;;;2.60;2.00;;;;;;;;;;5088251;28;20236;-64
2023/06/07 05:57:01;;;;;;;4.53;2.60;;;;;;;;;;5087000;28;20202;-64
2023/06/07 05:59:28;;;;;;;3.42;2.70;;;;;;;;;;5088410;28;20693;-64
2023/06/07 06:01:57;;;;;;;3.42;2.53;;;;;;;;;;5088621;28;20214;-64
2023/06/07 06:04:24;;;;;;;2.08;1.98;;;;;;;;;;5088715;28;20202;-64
2023/06/07 06:06:52;;;;;;;3.20;2.13;;;;;;;;;;5088230;28;20677;-64
2023/06/07 06:09:19;;;;;;;2.67;2.45;;;;;;;;;;5088358;28;20233;-64
2023/06/07 06:11:47;;;;;;;2.47;2.38;;;;;;;;;;5088579;28;20222;-64
2023/06/07 06:14:14;;;;;;;2.20;2.03;;;;;;;;;;5088200;28;20237;-64
2023/06/07 06:16:41;;;;;;;2.30;2.20;;;;;;;;;;5088105;28;20441;-64
2023/06/07 06:19:10;;;;;;;3.33;2.30;;;;;;;;;;5088359;28;20210;-64
2023/06/07 06:21:37;;;;;;;2.67;2.30;;;;;;;;;;5088271;28;20230;-64
2023/06/07 06:24:04;;;;;;;3.65;2.30;;;;;;;;;;5087844;28;20221;-64
2023/06/07 06:26:31;;;;;;;1.90;1.80;;;;;;;;;;5087846;28;20514;-64
2023/06/07 06:28:59;;;;;;;2.28;2.17;;;;;;;;;;5087516;28;20233;-65
2023/06/07 06:31:26;;;;;;;2.30;2.17;;;;;;;;;;5087942;28;20657;-64
2023/06/07 06:33:53;;;;;;;5.68;2.40;;;;;;;;;;5088103;28;20209;-64
2023/06/07 06:36:21;;;;;;;2.45;2.28;;;;;;;;;;5088058;28;20224;-65
2023/06/07 06:38:49;;;;;;;8.45;2.20;;;;;;;;;;5087831;28;20274;-64
2023/06/07 06:41:16;;;;;;;1.90;1.80;;;;;;;;;;5099119;28;20221;-64
2023/06/07 06:43:43;;;;;;;2.08;1.98;;;;;;;;;;5087653;28;20238;-64
2023/06/07 06:46:10;;;;;;;1.73;1.65;;;;;;;;;;5087058;28;20585;-64
2023/06/07 06:48:37;;;;;;;3.80;2.03;;;;;;;;;;5086685;28;20684;-64
2023/06/07 06:51:04;;;;;;;2.28;2.13;;;;;;;;;;5086683;28;20217;-64
2023/06/07 06:53:33;;;;;;;1.92;1.90;;;;;;;;;;5086783;28;20206;-64
2023/06/07 06:56:01;;;;;;;2.15;2.05;;;;;;;;;;5086596;28;20846;-64
2023/06/07 06:58:27;;;;;;;3.10;2.40;;;;;;;;;;5086434;28;20214;-65
2023/06/07 07:00:55;;;;;;;2.50;2.30;;;;;;;;;;5087027;28;20935;-65
2023/06/07 07:03:22;;;;;;;2.00;1.90;;;;;;;;;;5086865;28;20267;-64
2023/06/07 07:05:49;;;;;;;3.00;2.08;;;;;;;;;;5086893;28;20214;-64
2023/06/07 07:08:16;;;;;;;2.47;2.38;;;;;;;;;;5087009;28;20218;-64
2023/06/07 07:10:47;;;;;;;2.08;2.00;;;;;;;;;;5097311;28;20253;-64
2023/06/07 07:13:14;;;;;;;4.15;2.13;;;;;;;;;;5086554;28;20766;-64
2023/06/07 07:15:41;;;;;;;2.63;2.13;;;;;;;;;;5086651;28;20217;-65
2023/06/07 07:18:08;;;;;;;2.60;2.40;;;;;;;;;;5086571;28;20276;-65
2023/06/07 07:20:35;;;;;;;2.72;2.53;;;;;;;;;;5086141;28;20728;-64
2023/06/07 07:23:03;;;;;;;2.75;2.55;;;;;;;;;;5086741;28;20580;-64
2023/06/07 07:25:30;;;;;;;3.28;2.92;;;;;;;;;;5086659;28;20213;-64
2023/06/07 07:27:58;;;;;;;5.05;2.70;;;;;;;;;;5086143;28;20214;-65
2023/06/07 07:30:25;;;;;;;2.55;2.45;;;;;;;;;;5086045;28;20232;-64
2023/06/07 07:32:52;;;;;;;3.45;3.13;;;;;;;;;;5086731;28;20221;-65
2023/06/07 07:35:19;;;;;;;2.67;2.47;;;;;;;;;;5086353;28;20217;-65
2023/06/07 07:37:46;;;;;;;2.78;2.67;;;;;;;;;;5086488;28;20359;-65
2023/06/07 07:40:14;;;;;;;2.67;2.53;;;;;;;;;;5093150;28;20292;-65
2023/06/07 07:42:41;;;;;;;2.75;2.55;;;;;;;;;;5094579;28;20842;-65
2023/06/07 07:45:10;;;;;;;4.38;2.63;;;;;;;;;;5089813;28;20245;-65
2023/06/07 07:47:37;;;;;;;2.40;2.30;;;;;;;;;;5090268;28;20210;-65
2023/06/07 07:50:07;;;;;;;4.30;2.50;;;;;;;;;;5090091;28;20244;-65
2023/06/07 07:52:34;;;;;;;3.35;3.03;;;;;;;;;;5090039;28;20689;-63
2023/06/07 07:55:02;;;;;;;3.95;2.65;;;;;;;;;;5090229;28;20210;-64
2023/06/07 07:57:29;;;;;;;2.63;2.53;;;;;;;;;;5090220;28;20233;-65
2023/06/07 07:59:56;;;;;;;2.67;2.47;;;;;;;;;;5089697;28;20209;-65
2023/06/07 08:02:24;;;;;;;2.95;2.80;;;;;;;;;;5089792;28;20556;-65
2023/06/07 08:04:53;;;;;;;3.28;2.95;;;;;;;;;;5089827;28;20202;-64
2023/06/07 08:07:20;;;;;;;3.30;3.00;;;;;;;;;;5089762;28;20677;-65
2023/06/07 08:09:47;;;;;;;2.97;2.78;;;;;;;;;;5092288;28;20230;-65
2023/06/07 08:12:14;;;;;;;2.72;2.53;;;;;;;;;;5098151;28;20214;-65
2023/06/07 08:14:41;;;;;;;2.80;2.65;;;;;;;;;;5089396;28;20214;-65
2023/06/07 08:17:08;;;;;;;2.50;2.40;;;;;;;;;;5089702;28;20203;-62
2023/06/07 08:19:36;;;;;;;5.47;2.72;;;;;;;;;;5089631;28;20206;-63
2023/06/07 08:22:04;;;;;;;2.75;2.63;;;;;;;;;;5089397;28;20747;-63
2023/06/07 08:24:31;;;;;;;2.97;2.70;;;;;;;;;;5089347;28;20728;-63
2023/06/07 08:26:58;;;;;;;2.58;2.47;;;;;;;;;;5088985;28;20319;-63
2023/06/07 08:29:25;;;;;;;2.90;2.80;;;;;;;;;;5088767;28;20222;-63
2023/06/07 08:31:52;;;;;;;3.00;2.83;;;;;;;;;;5089075;28;20317;-63
2023/06/07 08:34:27;;;;;;;2.63;2.53;;;;;;;;;;5089094;28;20230;-63
2023/06/07 08:36:55;;;;;;;2.83;2.70;;;;;;;;;;5089051;28;20609;-63
2023/06/07 08:39:23;;;;;;;2.72;2.63;;;;;;;;;;5088934;28;20229;-63
2023/06/07 08:41:50;;;;;;;3.63;3.40;;;;;;;;;;5100280;28;20217;-64
2023/06/07 08:44:17;;;;;;;3.30;2.80;;;;;;;;;;5089132;28;20627;-64
2023/06/07 08:46:44;;;;;;;2.95;2.75;;;;;;;;;;5089031;28;20214;-63
2023/06/07 08:49:12;;;;;;;2.85;2.75;;;;;;;;;;5089193;28;20226;-63
2023/06/07 08:51:41;;;;;;;2.40;2.30;;;;;;;;;;5088604;28;20213;-64
2023/06/07 08:54:10;;;;;;;3.20;3.00;;;;;;;;;;5088534;28;20232;-64
2023/06/07 08:56:38;;;;;;;3.00;2.70;;;;;;;;;;5089075;28;20210;-64
2023/06/07 08:59:06;;;;;;;3.28;3.13;;;;;;;;;;5085949;28;20250;-64
2023/06/07 09:01:35;;;;;;;3.10;2.90;;;;;;;;;;5085837;28;20309;-64
2023/06/07 09:04:02;;;;;;;3.30;3.10;;;;;;;;;;5086254;28;20214;-64
2023/06/07 09:06:29;;;;;;;3.20;3.10;;;;;;;;;;5087902;28;20221;-64
2023/06/07 09:08:56;;;;;;;2.85;2.75;;;;;;;;;;5088040;28;20213;-64
2023/06/07 09:11:25;;;;;;;2.78;2.47;;;;;;;;;;5099386;28;20210;-64
2023/06/07 09:13:52;;;;;;;2.88;2.78;;;;;;;;;;5088803;28;20202;-64
2023/06/07 09:16:19;;;;;;;3.08;2.90;;;;;;;;;;5087353;28;20210;-64
2023/06/07 09:18:53;;;;;;;2.95;2.80;;;;;;;;;;5089362;28;20206;-63
2023/06/07 09:21:21;;;;;;;3.05;2.95;;;;;;;;;;5089365;28;20234;-64
2023/06/07 09:23:48;;;;;;;2.88;2.70;;;;;;;;;;5089347;28;20245;-64
2023/06/07 09:26:15;;;;;;;3.50;2.75;;;;;;;;;;5089097;28;20210;-64
2023/06/07 09:28:45;;;;;;;3.88;2.58;;;;;;;;;;5089248;28;20214;-64
2023/06/07 09:31:13;;;;;;;2.95;2.85;;;;;;;;;;5089009;28;20230;-64
2023/06/07 09:33:40;;;;;;;2.92;2.70;;;;;;;;;;5089282;28;20214;-64
2023/06/07 09:36:07;;;;;;;3.20;3.00;;;;;;;;;;5088885;28;20238;-66
2023/06/07 09:38:35;;;;;;;2.90;2.80;;;;;;;;;;5088867;28;20710;-63
2023/06/07 09:41:03;;;;;;;2.83;2.72;;;;;;;;;;5099940;28;20630;-64
2023/06/07 09:43:42;;;;;;;3.40;2.90;;;;;;;;;;5088341;28;20324;-64
2023/06/07 09:46:11;;;;;;;5.47;2.92;;;;;;;;;;5088415;28;20210;-64
2023/06/07 09:48:48;;;;;;;4.10;3.20;;;;;;;;;;5088613;28;20905;-63
2023/06/07 09:51:15;;;;;;;2.60;2.50;;;;;;;;;;5088947;28;20325;-64
2023/06/07 09:53:52;;;;;;;3.05;2.95;;;;;;;;;;5088793;28;20241;-64
2023/06/07 09:56:19;;;;;;;3.78;3.47;;;;;;;;;;5088533;28;20556;-63
2023/06/07 09:58:49;;;;;;;2.78;2.67;;;;;;;;;;5088695;28;20301;-64
2023/06/07 10:01:32;;;;;;;3.20;3.08;;;;;;;;;;5088502;28;20206;-64
2023/06/07 10:03:59;;;;;;;3.58;3.28;;;;;;;;;;5088076;28;20311;-63
2023/06/07 10:06:27;;;;;;;3.95;3.65;;;;;;;;;;5088025;28;20206;-63
2023/06/07 10:08:54;;;;;;;3.25;3.08;;;;;;;;;;5088229;28;20210;-62
2023/06/07 10:11:21;;;;;;;3.03;2.83;;;;;;;;;;5099380;28;20245;-62
2023/06/07 10:13:48;;;;;;;4.40;3.08;;;;;;;;;;5088028;28;20210;-62
2023/06/07 10:16:17;;;;;;;3.33;3.20;;;;;;;;;;5087782;28;20210;-63
2023/06/07 10:18:46;;;;;;;4.40;3.10;;;;;;;;;;5087878;28;20218;-62
2023/06/07 10:21:16;;;;;;;3.70;3.13;;;;;;;;;;5087858;28;20234;-63
2023/06/07 10:23:48;;;;;;;4.72;3.33;;;;;;;;;;5087804;28;20202;-63
2023/06/07 10:26:20;;;;;;;3.28;3.08;;;;;;;;;;5087776;28;20587;-62
2023/06/07 10:28:50;;;;;;;3.78;3.55;;;;;;;;;;5087957;28;20317;-63
2023/06/07 10:31:17;;;;;;;4.43;4.03;;;;;;;;;;5087458;28;20254;-62
2023/06/07 10:33:46;;;;;;;4.03;3.72;;;;;;;;;;5087730;28;20607;-63
2023/06/07 10:36:13;;;;;;;3.90;3.60;;;;;;;;;;5087818;28;20214;-63
2023/06/07 10:38:41;;;;;;;3.53;3.35;;;;;;;;;;5087741;28;20638;-62
2023/06/07 10:41:08;;;;;;;3.53;3.33;;;;;;;;;;5099041;28;20488;-63
2023/06/07 10:43:35;;;;;;;3.78;3.58;;;;;;;;;;5087287;28;20246;-63
2023/06/07 10:46:19;;;;;;;3.42;3.33;;;;;;;;;;5086656;28;20216;-63
2023/06/07 10:48:47;;;;;;;3.65;3.45;;;;;;;;;;5086775;28;20214;-63
2023/06/07 10:51:15;;;;;;;4.10;3.75;;;;;;;;;;5087000;28;20248;-62
2023/06/07 10:53:51;;;;;;;3.90;3.60;;;;;;;;;;5086801;28;20649;-63
2023/06/07 10:56:28;;;;;;;3.70;3.50;;;;;;;;;;5086811;28;20758;-63
2023/06/07 10:58:56;;;;;;;4.03;3.72;;;;;;;;;;5086526;28;20218;-63
2023/06/07 11:01:24;;;;;;;3.63;3.42;;;;;;;;;;5086536;28;20244;-62
2023/06/07 11:07:15;;;;;;;3.60;3.40;;;;;;;;;;5063689;28;20290;-63
2023/06/07 11:09:44;;;;;;;3.55;3.35;;;;;;;;;;5088486;28;20217;-63
2023/06/07 11:12:31;;;;;;;5.18;3.80;;;;;;;;;;5095049;28;20283;-62
2023/06/07 11:15:17;;;;;;;3.72;3.53;;;;;;;;;;5085477;28;20209;-63
2023/06/07 11:17:50;;;;;;;4.38;4.03;;;;;;;;;;5086249;28;20228;-63
2023/06/07 11:20:44;;;;;;;4.07;3.88;;;;;;;;;;5086350;28;20257;-63
2023/06/07 11:23:21;;;;;;;4.13;3.88;;;;;;;;;;5086172;28;20267;-63
2023/06/07 11:25:51;;;;;;;4.15;3.85;;;;;;;;;;5086406;28;20209;-63
2023/06/07 11:28:21;;;;;;;3.45;3.15;;;;;;;;;;5086729;28;20210;-65
2023/06/07 11:30:49;;;;;;;3.00;2.90;;;;;;;;;;5086107;28;20230;-63
2023/06/07 11:33:16;;;;;;;3.78;3.47;;;;;;;;;;5086450;28;20216;-66
2023/06/07 11:35:43;;;;;;;3.65;3.45;;;;;;;;;;5086122;28;20784;-65
2023/06/07 11:38:10;;;;;;;3.58;3.40;;;;;;;;;;5086043;28;20218;-64
2023/06/07 11:40:37;;;;;;;3.30;3.10;;;;;;;;;;5095618;28;20773;-65
2023/06/07 11:43:05;;;;;;;3.83;3.55;;;;;;;;;;5087204;28;20621;-64
2023/06/07 11:45:33;;;;;;;3.78;3.58;;;;;;;;;;5085861;28;20238;-63
2023/06/07 11:48:02;;;;;;;3.83;3.63;;;;;;;;;;5086233;28;20686;-63
2023/06/07 11:50:29;;;;;;;3.63;3.40;;;;;;;;;;5086368;28;20245;-63
2023/06/07 11:52:57;;;;;;;3.85;3.33;;;;;;;;;;5086045;28;20580;-64
2023/06/07 11:55:24;;;;;;;2.92;2.83;;;;;;;;;;5086191;28;20587;-64
2023/06/07 11:57:53;;;;;;;3.33;3.15;;;;;;;;;;5086094;28;20221;-64
2023/06/07 12:00:23;;;;;;;3.63;3.42;;;;;;;;;;5085998;28;20259;-63
2023/06/07 12:02:51;;;;;;;3.40;3.20;;;;;;;;;;5086115;28;20206;-63
2023/06/07 12:05:18;;;;;;;3.40;3.30;;;;;;;;;;5086102;28;20221;-63
2023/06/07 12:07:55;;;;;;;2.97;2.88;;;;;;;;;;5085647;28;20305;-64
2023/06/07 12:10:24;;;;;;;3.08;2.97;;;;;;;;;;5093334;28;20229;-64
2023/06/07 12:13:04;;;;;;;3.55;3.28;;;;;;;;;;5089158;28;20279;-63
2023/06/07 12:15:34;;;;;;;3.15;2.95;;;;;;;;;;5085628;28;20206;-64
2023/06/07 12:18:01;;;;;;;3.22;3.13;;;;;;;;;;5085861;28;20239;-63
2023/06/07 12:20:28;;;;;;;3.17;3.08;;;;;;;;;;5085834;28;20233;-64
2023/06/07 12:23:03;;;;;;;3.58;3.35;;;;;;;;;;5085930;28;20240;-64
2023/06/07 12:25:30;;;;;;;3.58;3.38;;;;;;;;;;5086077;28;20264;-64
2023/06/07 12:27:57;;;;;;;3.55;3.40;;;;;;;;;;5088908;28;20213;-63
2023/06/07 12:30:32;;;;;;;3.25;3.13;;;;;;;;;;5089220;28;20713;-64
2023/06/07 12:33:01;;;;;;;3.50;3.40;;;;;;;;;;5089805;28;20206;-63
2023/06/07 12:35:37;;;;;;;4.07;3.78;;;;;;;;;;5089525;28;20268;-64
2023/06/07 12:38:04;;;;;;;3.10;2.90;;;;;;;;;;5088989;28;20689;-63
2023/06/07 12:40:31;;;;;;;4.15;3.13;;;;;;;;;;5098187;28;20229;-64
2023/06/07 12:42:58;;;;;;;2.97;2.80;;;;;;;;;;5091564;28;20250;-63
2023/06/07 12:45:25;;;;;;;3.60;3.40;;;;;;;;;;5088806;28;20207;-63
2023/06/07 12:47:53;;;;;;;3.05;2.95;;;;;;;;;;5089273;28;20230;-63
2023/06/07 12:50:21;;;;;;;3.53;3.30;;;;;;;;;;5088971;28;20207;-63
2023/06/07 12:52:48;;;;;;;2.95;2.85;;;;;;;;;;5088950;28;20206;-63
2023/06/07 12:55:15;;;;;;;3.75;3.50;;;;;;;;;;5088944;28;20214;-64
2023/06/07 12:57:42;;;;;;;3.65;3.55;;;;;;;;;;5088798;28;20214;-64
2023/06/07 13:00:10;;;;;;;3.30;3.10;;;;;;;;;;5088394;28;20202;-64
2023/06/07 13:02:37;;;;;;;3.40;3.10;;;;;;;;;;5088828;28;20217;-63
2023/06/07 13:05:04;;;;;;;3.25;2.95;;;;;;;;;;5088804;28;20206;-63
2023/06/07 13:07:33;;;;;;;2.65;2.63;;;;;;;;;;5088675;28;20206;-64
2023/06/07 13:10:00;;;;;;;3.15;3.05;;;;;;;;;;5093412;28;20206;-64
2023/06/07 13:12:28;;;;;;;2.38;2.28;;;;;;;;;;5095564;28;20740;-63
2023/06/07 13:14:55;;;;;;;3.15;2.95;;;;;;;;;;5088841;28;20680;-63
2023/06/07 13:17:22;;;;;;;2.95;2.75;;;;;;;;;;5088978;28;20620;-63
2023/06/07 13:19:49;;;;;;;3.67;3.40;;;;;;;;;;5088999;28;20213;-63
2023/06/07 13:22:16;;;;;;;3.40;2.90;;;;;;;;;;5088836;28;20225;-63
2023/06/07 13:24:45;;;;;;;2.70;2.60;;;;;;;;;;5088782;28;20206;-63
2023/06/07 13:27:12;;;;;;;2.55;2.35;;;;;;;;;;5088682;28;20301;-64
2023/06/07 13:29:39;;;;;;;2.05;2.05;;;;;;;;;;5088635;28;20202;-63
2023/06/07 13:32:07;;;;;;;2.55;2.45;;;;;;;;;;5088870;28;20322;-64
2023/06/07 13:34:34;;;;;;;2.40;2.30;;;;;;;;;;5088788;28;20244;-63
2023/06/07 13:37:01;;;;;;;2.53;2.42;;;;;;;;;;5088784;28;20283;-64
2023/06/07 13:39:29;;;;;;;2.20;2.20;;;;;;;;;;5088059;28;20502;-63
2023/06/07 13:41:57;;;;;;;2.90;2.80;;;;;;;;;;5099118;28;20221;-63
2023/06/07 13:44:24;;;;;;;2.92;2.83;;;;;;;;;;5088294;28;20213;-64
2023/06/07 13:46:51;;;;;;;2.90;2.80;;;;;;;;;;5088040;28;20725;-64
2023/06/07 13:49:19;;;;;;;3.13;2.97;;;;;;;;;;5088219;28;20226;-64
2023/06/07 13:51:46;;;;;;;3.05;2.95;;;;;;;;;;5083667;28;20321;-63
2023/06/07 13:54:15;;;;;;;2.42;2.33;;;;;;;;;;5084043;28;20207;-62
2023/06/07 13:56:42;;;;;;;2.78;2.67;;;;;;;;;;5078647;28;20206;-62
2023/06/07 13:59:10;;;;;;;2.55;2.50;;;;;;;;;;5066777;28;20306;-63
2023/06/07 14:01:37;;;;;;;2.70;2.60;;;;;;;;;;5067892;28;20203;-63
2023/06/07 14:04:05;;;;;;;2.80;2.70;;;;;;;;;;5068122;28;20207;-63
2023/06/07 14:06:33;;;;;;;2.70;2.60;;;;;;;;;;5072356;28;20206;-63
2023/06/07 14:09:00;;;;;;;2.83;2.72;;;;;;;;;;5079022;28;20198;-62
2023/06/07 14:11:27;;;;;;;2.72;2.63;;;;;;;;;;5097170;28;20611;-62
2023/06/07 14:13:54;;;;;;;2.45;2.35;;;;;;;;;;5088183;28;20208;-62
2023/06/07 14:16:22;;;;;;;2.78;2.58;;;;;;;;;;5080155;28;20264;-62
2023/06/07 14:18:50;;;;;;;3.10;3.00;;;;;;;;;;5081253;28;20202;-62
2023/06/07 14:21:17;;;;;;;1.80;1.80;;;;;;;;;;5086880;28;20258;-64
2023/06/07 14:23:44;;;;;;;2.45;2.38;;;;;;;;;;5075612;28;20266;-64
2023/06/07 14:26:11;;;;;;;3.70;3.47;;;;;;;;;;5087699;28;20354;-63
2023/06/07 14:28:38;;;;;;;3.35;3.15;;;;;;;;;;5087939;28;20210;-63
2023/06/07 14:31:05;;;;;;;2.38;2.33;;;;;;;;;;5086279;28;20603;-63
2023/06/07 14:33:34;;;;;;;2.90;2.80;;;;;;;;;;5085289;28;20215;-63
2023/06/07 14:36:01;;;;;;;2.30;2.25;;;;;;;;;;5085281;28;20210;-63
2023/06/07 14:38:28;;;;;;;2.35;2.25;;;;;;;;;;5082705;28;20214;-63
2023/06/07 14:40:55;;;;;;;2.35;2.28;;;;;;;;;;5098559;28;20301;-63
2023/06/07 14:43:22;;;;;;;2.20;2.20;;;;;;;;;;5087138;28;20738;-63
2023/06/07 14:45:49;;;;;;;2.47;2.38;;;;;;;;;;5080788;28;20207;-63
2023/06/07 14:48:16;;;;;;;2.75;2.65;;;;;;;;;;5082318;28;20209;-63
2023/06/07 14:50:44;;;;;;;2.72;2.60;;;;;;;;;;5086106;28;20218;-63
2023/06/07 14:53:11;;;;;;;2.80;2.70;;;;;;;;;;5086580;28;20226;-63